Airfield :
LOGIN :

Register | Disclaimer

   EN    FR    IT 

 










Legend :    VFR   Marginal VFR   IFR   Intensive IFR   Very Intensive IFR
Visi :
Ceiling :
>= 8 km
>= 3000ft
5 to 8 km
1000 to 3000 ft
1500m to 5 km
500 to 1000 ft
800 to 1500m
200 to 500 ft
< 800m
< 200 ft
Symbols :   Thunderstorms  Fog  Heavy snow  Heavy precipitations  Wind > 20 kt
SIGMETs :     Misc.  Thunderstorms  Icing  Turbulence  Mountain Waves  Volcanic Ashes






- Airport Elevation : 289 ft


LFYR - Romorantin Pruniers

CURRENT METAR :
  • 162030Z AUTO 21009KT 180V250 9999 BKN030 OVC035 15/12 Q1011

EXPIRED METARs :
  • 162000Z AUTO 20011KT 170V230 9999 SCT028 BKN044 BKN056 14/12 Q1011
  • 161930Z AUTO 20013KT 9999 FEW017 SCT066 OVC076 14/12 Q1011
  • 161900Z AUTO 20012KT 9999 FEW020 BKN060 BKN074 15/12 Q1011
  • 161830Z AUTO 20014KT 9999 SCT034 BKN041 OVC058 15/12 Q1011
  • 161800Z AUTO 19008KT 9999 BKN037 OVC048 14/12 Q1011

Expired Forecast.



MET'MAP, your aeronautical weather chart ! - Copyright ORBIFLY December 2007 - Disclaimer

ORBIFLY MET'MAP TEAM :

Programming & Development : Alexandra Zaïnal
Concept & Development : Baudouin d'Aumeries
Co-Development & Prog : Marc-Olivier Méhu
Technical & hardware support : Manuel Goepfert

Contact : metmap@orbifly.com




SOURCES & CREDITS :

   NOAA